createdAt,value
2022-10-16T05:47:53.077Z,17.57
2022-10-16T05:50:22.397Z,17.63
2022-10-16T05:52:50.345Z,17.68
2022-10-16T05:55:18.153Z,17.73
2022-10-16T05:57:45.943Z,17.72
2022-10-16T06:00:14.417Z,17.72
2022-10-16T06:02:42.190Z,17.81
2022-10-16T06:05:10.386Z,17.89
2022-10-16T06:07:39.670Z,17.94
2022-10-16T06:10:08.888Z,18.05
2022-10-16T06:12:36.619Z,18.19
2022-10-16T06:15:04.919Z,18.21
2022-10-16T06:17:32.685Z,18.30
2022-10-16T06:20:00.509Z,18.40
2022-10-16T06:22:28.272Z,18.36
2022-10-16T06:24:57.455Z,18.33
2022-10-16T06:27:25.986Z,17.79
2022-10-16T06:29:54.229Z,17.39
2022-10-16T06:32:22.617Z,17.60
2022-10-16T06:34:50.434Z,17.79
2022-10-16T06:37:18.149Z,17.65
2022-10-16T06:39:46.077Z,17.74
2022-10-16T06:42:15.235Z,17.56
2022-10-16T06:44:43.128Z,17.31
2022-10-16T06:47:11.142Z,17.65
2022-10-16T06:49:39.070Z,17.97
2022-10-16T06:52:06.920Z,18.18
2022-10-16T06:54:42.037Z,18.37
2022-10-16T06:57:10.240Z,18.52
2022-10-16T06:59:39.584Z,18.72
2022-10-16T07:02:07.970Z,18.95
2022-10-16T07:04:35.834Z,19.19
2022-10-16T07:07:06.908Z,19.27
2022-10-16T07:09:36.980Z,19.38
2022-10-16T07:12:05.074Z,19.47
2022-10-16T07:14:32.960Z,19.45
2022-10-16T07:17:02.191Z,18.86
2022-10-16T07:19:33.424Z,18.66
2022-10-16T07:22:02.545Z,18.78
2022-10-16T07:24:30.365Z,18.82
2022-10-16T07:26:58.313Z,18.77
2022-10-16T07:29:26.373Z,18.50
2022-10-16T07:31:54.156Z,18.35
2022-10-16T07:34:23.791Z,18.34
2022-10-16T07:36:52.574Z,18.47
2022-10-16T07:39:22.549Z,18.52
2022-10-16T07:41:50.562Z,18.48
2022-10-16T07:44:18.413Z,18.35
2022-10-16T07:46:46.234Z,17.82
2022-10-16T07:49:14.265Z,17.30
2022-10-16T07:51:43.571Z,17.47
2022-10-16T07:54:12.082Z,18.04
2022-10-16T07:56:42.968Z,18.71
2022-10-16T07:59:12.245Z,19.00
2022-10-16T08:01:40.059Z,19.18
2022-10-16T08:04:08.109Z,18.58
2022-10-16T08:06:38.576Z,18.12
2022-10-16T08:09:09.125Z,17.46
2022-10-16T08:11:36.904Z,17.63
2022-10-16T08:14:04.842Z,17.93
2022-10-16T08:16:32.545Z,18.02
2022-10-16T08:19:00.566Z,18.20
2022-10-16T08:21:28.265Z,18.48
2022-10-16T08:23:58.545Z,18.68
2022-10-16T08:26:28.817Z,19.00
2022-10-16T08:28:57.964Z,19.05
2022-10-16T08:31:27.375Z,18.82
2022-10-16T08:33:55.512Z,18.62
2022-10-16T08:36:23.698Z,18.50
2022-10-16T08:38:54.415Z,18.37
2022-10-16T08:41:35.027Z,18.36
2022-10-16T08:44:31.933Z,18.24
2022-10-16T08:47:06.987Z,18.33
2022-10-16T08:49:34.920Z,18.51
2022-10-16T08:52:02.950Z,18.45
2022-10-16T08:54:35.897Z,18.44
2022-10-16T08:57:13.159Z,18.48
2022-10-16T08:59:41.026Z,18.44
2022-10-16T09:02:25.971Z,18.64
2022-10-16T09:05:19.055Z,18.76
2022-10-16T09:07:56.359Z,18.76
2022-10-16T09:10:35.902Z,18.90
2022-10-16T09:13:19.543Z,18.85
2022-10-16T09:15:55.656Z,18.73
2022-10-16T09:18:30.107Z,18.91
2022-10-16T09:21:08.715Z,18.87
2022-10-16T09:23:38.677Z,18.94
2022-10-16T09:26:12.335Z,19.08
2022-10-16T09:28:42.421Z,18.95
2022-10-16T09:31:17.611Z,19.20
2022-10-16T09:33:47.687Z,19.46
2022-10-16T09:36:16.081Z,19.69
2022-10-16T09:38:43.858Z,20.74
2022-10-16T09:41:19.782Z,21.36
2022-10-16T09:43:57.941Z,22.10
2022-10-16T09:46:30.566Z,22.45
2022-10-16T09:49:00.935Z,22.62
2022-10-16T09:51:30.475Z,22.93
2022-10-16T09:54:01.189Z,23.02
2022-10-16T09:56:30.717Z,23.80
2022-10-16T09:59:02.741Z,24.73
2022-10-16T10:01:34.038Z,25.92
2022-10-16T10:04:03.954Z,25.31
2022-10-16T10:06:34.760Z,26.13
2022-10-16T10:09:07.721Z,26.49
2022-10-16T10:11:54.937Z,25.85
2022-10-16T10:14:31.529Z,25.03
2022-10-16T10:17:18.285Z,24.10
2022-10-16T10:19:53.253Z,24.42
2022-10-16T10:22:26.472Z,23.95
2022-10-16T10:25:13.794Z,22.98
2022-10-16T10:27:51.392Z,23.55
2022-10-16T10:30:25.282Z,24.77
2022-10-16T10:33:08.277Z,25.22
2022-10-16T10:35:46.603Z,24.91
2022-10-16T10:38:28.454Z,24.70
2022-10-16T10:41:11.529Z,24.75
2022-10-16T10:43:55.879Z,27.25
2022-10-16T10:46:34.674Z,28.28
2022-10-16T10:49:19.317Z,28.75
2022-10-16T10:51:56.953Z,29.40
2022-10-16T10:54:31.939Z,29.80
2022-10-16T10:57:04.245Z,30.97
2022-10-16T11:00:01.797Z,30.33
2022-10-16T11:02:38.496Z,30.04
2022-10-16T11:05:29.672Z,33.33
2022-10-16T11:08:02.155Z,32.82
2022-10-16T11:10:35.909Z,31.79
2022-10-16T11:13:17.398Z,30.89
2022-10-16T11:15:47.341Z,30.81
2022-10-16T11:18:21.914Z,30.10
2022-10-16T11:20:55.626Z,27.67
2022-10-16T11:23:29.761Z,27.96
2022-10-16T11:26:02.804Z,27.84
2022-10-16T11:28:36.756Z,25.78
2022-10-16T11:31:17.202Z,22.74
2022-10-16T11:33:51.711Z,22.09
2022-10-16T11:36:25.329Z,22.35
2022-10-16T11:39:00.940Z,22.49
2022-10-16T11:41:34.369Z,22.28
2022-10-16T11:44:16.339Z,23.76
2022-10-16T11:46:59.148Z,25.82
2022-10-16T11:49:33.677Z,25.69
2022-10-16T11:52:17.372Z,25.35
2022-10-16T11:54:49.724Z,28.55
2022-10-16T11:57:22.450Z,29.80
2022-10-16T11:59:55.300Z,26.93
2022-10-16T12:02:35.829Z,26.37
2022-10-16T12:05:17.575Z,27.31
2022-10-16T12:07:53.884Z,27.00
2022-10-16T12:10:27.625Z,29.08
2022-10-16T12:12:57.284Z,30.94
2022-10-16T12:15:57.608Z,32.98
2022-10-16T12:18:23.307Z,35.37
2022-10-16T12:21:05.412Z,37.03
2022-10-16T12:23:34.986Z,37.38
2022-10-16T12:26:03.744Z,36.28
2022-10-16T12:28:32.696Z,37.52
2022-10-16T12:31:03.467Z,37.86
2022-10-16T12:33:32.862Z,39.76
2022-10-16T12:36:04.081Z,40.57
2022-10-16T12:38:39.141Z,39.39
2022-10-16T12:41:09.342Z,39.37
2022-10-16T12:43:40.838Z,39.48
2022-10-16T12:46:24.733Z,38.87
2022-10-16T12:49:06.732Z,35.14
2022-10-16T12:51:38.193Z,30.98
2022-10-16T12:54:13.521Z,28.55
2022-10-16T12:56:52.611Z,27.76
2022-10-16T12:59:33.567Z,27.19
2022-10-16T13:02:22.933Z,27.24
2022-10-16T13:05:20.323Z,27.47
2022-10-16T13:08:04.631Z,27.64
2022-10-16T13:10:40.225Z,27.54
2022-10-16T13:13:29.733Z,27.23
2022-10-16T13:16:12.443Z,26.77
2022-10-16T13:18:48.780Z,26.50
2022-10-16T13:21:27.832Z,25.85
2022-10-16T13:24:04.885Z,25.72
2022-10-16T13:26:43.854Z,25.89
2022-10-16T13:29:12.049Z,26.27
2022-10-16T13:31:40.976Z,26.55
2022-10-16T13:34:16.569Z,26.58
2022-10-16T13:36:51.227Z,26.50
2022-10-16T13:39:25.945Z,26.23
2022-10-16T13:42:07.972Z,26.32
2022-10-16T13:44:43.050Z,26.38
2022-10-16T13:47:19.340Z,26.36
2022-10-16T13:49:47.862Z,26.25
2022-10-16T13:52:21.037Z,26.12
2022-10-16T13:54:50.311Z,26.06
2022-10-16T13:57:27.615Z,25.87
2022-10-16T13:59:55.881Z,25.67
2022-10-16T14:02:29.052Z,25.49
2022-10-16T14:04:59.673Z,25.34
2022-10-16T14:07:30.152Z,25.22
2022-10-16T14:10:02.859Z,25.16
2022-10-16T14:12:31.113Z,25.11
2022-10-16T14:15:01.692Z,25.02
2022-10-16T14:17:31.986Z,24.93
2022-10-16T14:20:02.852Z,24.83
2022-10-16T14:22:36.169Z,24.73
2022-10-16T14:25:23.964Z,24.92
2022-10-16T14:30:29.676Z,24.90
2022-10-16T14:32:59.812Z,25.09
2022-10-16T14:35:31.690Z,25.09
2022-10-16T14:38:01.697Z,25.01
2022-10-16T14:40:33.630Z,25.04
2022-10-16T14:43:03.418Z,24.87
2022-10-16T14:45:34.712Z,24.81
2022-10-16T14:48:05.171Z,24.84
2022-10-16T14:50:33.057Z,24.73
2022-10-16T14:53:00.940Z,24.55
2022-10-16T14:55:30.904Z,24.43
2022-10-16T14:58:00.796Z,24.39
2022-10-16T15:00:29.200Z,24.40
2022-10-16T15:02:57.374Z,24.46
2022-10-16T15:05:27.331Z,24.55
2022-10-16T15:07:56.460Z,25.93
2022-10-16T15:10:27.576Z,25.79
2022-10-16T15:12:56.964Z,25.81
2022-10-16T15:15:34.663Z,26.05
2022-10-16T15:18:03.726Z,25.59
2022-10-16T15:20:35.312Z,25.09
2022-10-16T15:23:05.345Z,24.60
2022-10-16T15:25:37.151Z,24.40
2022-10-16T15:28:06.744Z,24.30
2022-10-16T15:30:34.687Z,24.32
2022-10-16T15:33:03.161Z,24.33
2022-10-16T15:35:31.004Z,24.03
2022-10-16T15:37:59.510Z,24.00
2022-10-16T15:40:27.648Z,24.09
2022-10-16T15:42:55.992Z,24.06
2022-10-16T15:45:25.374Z,23.99
2022-10-16T15:47:53.271Z,23.75
2022-10-16T15:50:21.893Z,23.41
2022-10-16T15:52:49.802Z,23.09
2022-10-16T15:55:18.410Z,22.89
2022-10-16T15:57:49.265Z,22.71
2022-10-16T16:00:21.723Z,22.70
2022-10-16T16:02:55.256Z,22.59
2022-10-16T16:05:23.695Z,22.68
2022-10-16T16:07:52.840Z,22.52
2022-10-16T16:10:22.525Z,22.34
2022-10-16T16:12:53.081Z,22.20
2022-10-16T16:15:22.753Z,21.86
2022-10-16T16:17:51.032Z,21.67
2022-10-16T16:20:20.372Z,21.56
2022-10-16T16:22:48.353Z,21.36
2022-10-16T16:25:16.465Z,21.24
2022-10-16T16:27:45.395Z,21.17
2022-10-16T16:30:18.280Z,21.28
2022-10-16T16:32:47.931Z,21.33
2022-10-16T16:35:16.158Z,21.29
2022-10-16T16:37:45.542Z,21.18
2022-10-16T16:40:13.615Z,21.01
2022-10-16T16:42:41.638Z,20.78
2022-10-16T16:45:11.012Z,20.64
2022-10-16T16:47:39.738Z,20.66
2022-10-16T16:50:08.384Z,20.70
2022-10-16T16:52:36.769Z,20.81
2022-10-16T16:55:06.796Z,20.93
2022-10-16T19:41:11.627Z,17.14
2022-10-16T19:43:40.126Z,17.14
2022-10-16T19:46:10.806Z,17.16
2022-10-16T19:48:43.427Z,17.09
2022-10-16T19:51:13.100Z,16.97
2022-10-16T19:53:41.442Z,16.95
2022-10-16T19:56:16.994Z,16.91
2022-10-16T19:58:46.320Z,16.96
2022-10-16T20:01:16.061Z,16.93
2022-10-16T20:03:45.558Z,16.88
